sensor_id;sensor_type;location;lat;lon;timestamp;pressure;altitude;pressure_sealevel;temperature;humidity
64230;BME280;50547;49.498;0.092;2023-04-01T00:01:16;1000.03;;;10.75;89.75
64230;BME280;50547;49.498;0.092;2023-04-01T00:03:45;999.81;;;10.79;89.41
64230;BME280;50547;49.498;0.092;2023-04-01T00:06:16;999.67;;;10.75;89.78
64230;BME280;50547;49.498;0.092;2023-04-01T00:08:46;999.87;;;10.77;89.65
64230;BME280;50547;49.498;0.092;2023-04-01T00:11:16;999.79;;;10.77;89.52
64230;BME280;50547;49.498;0.092;2023-04-01T00:13:45;1000.05;;;10.78;89.51
64230;BME280;50547;49.498;0.092;2023-04-01T00:16:14;999.60;;;10.78;89.34
64230;BME280;50547;49.498;0.092;2023-04-01T00:18:44;999.95;;;10.80;89.09
64230;BME280;50547;49.498;0.092;2023-04-01T00:21:13;999.95;;;10.81;89.07
64230;BME280;50547;49.498;0.092;2023-04-01T00:23:42;1000.20;;;10.81;88.94
64230;BME280;50547;49.498;0.092;2023-04-01T00:26:11;1000.05;;;10.85;88.95
64230;BME280;50547;49.498;0.092;2023-04-01T00:28:41;1000.05;;;10.79;89.34
64230;BME280;50547;49.498;0.092;2023-04-01T00:31:10;1000.03;;;10.77;89.35
64230;BME280;50547;49.498;0.092;2023-04-01T00:33:40;1000.22;;;10.78;89.39
64230;BME280;50547;49.498;0.092;2023-04-01T00:36:11;1000.12;;;10.73;89.51
64230;BME280;50547;49.498;0.092;2023-04-01T00:38:41;999.99;;;10.72;89.70
64230;BME280;50547;49.498;0.092;2023-04-01T00:41:12;1000.01;;;10.70;89.75
64230;BME280;50547;49.498;0.092;2023-04-01T00:43:42;1000.26;;;10.70;89.66
64230;BME280;50547;49.498;0.092;2023-04-01T00:46:12;1000.20;;;10.72;89.43
64230;BME280;50547;49.498;0.092;2023-04-01T00:48:45;1000.52;;;10.76;89.10
64230;BME280;50547;49.498;0.092;2023-04-01T00:51:18;1000.18;;;10.73;89.36
64230;BME280;50547;49.498;0.092;2023-04-01T00:53:51;1000.44;;;10.73;89.55
64230;BME280;50547;49.498;0.092;2023-04-01T00:56:25;1000.50;;;10.73;89.36
64230;BME280;50547;49.498;0.092;2023-04-01T00:58:59;1000.44;;;10.74;89.25
64230;BME280;50547;49.498;0.092;2023-04-01T01:01:30;1000.39;;;10.75;89.20
64230;BME280;50547;49.498;0.092;2023-04-01T01:03:59;1000.16;;;10.73;89.30
64230;BME280;50547;49.498;0.092;2023-04-01T01:06:38;1000.39;;;10.71;89.57
64230;BME280;50547;49.498;0.092;2023-04-01T01:09:18;1000.46;;;10.67;89.61
64230;BME280;50547;49.498;0.092;2023-04-01T01:11:52;1000.41;;;10.73;89.38
64230;BME280;50547;49.498;0.092;2023-04-01T01:14:31;1000.44;;;10.68;89.81
64230;BME280;50547;49.498;0.092;2023-04-01T01:17:09;1000.56;;;10.69;89.85
64230;BME280;50547;49.498;0.092;2023-04-01T01:19:54;1000.64;;;10.69;89.84
64230;BME280;50547;49.498;0.092;2023-04-01T01:22:35;1000.42;;;10.66;89.87
64230;BME280;50547;49.498;0.092;2023-04-01T01:25:16;1000.66;;;10.66;90.04
64230;BME280;50547;49.498;0.092;2023-04-01T01:27:56;1000.58;;;10.65;90.09
64230;BME280;50547;49.498;0.092;2023-04-01T01:30:36;1000.60;;;10.61;90.19
64230;BME280;50547;49.498;0.092;2023-04-01T01:33:24;1000.76;;;10.61;90.39
64230;BME280;50547;49.498;0.092;2023-04-01T01:36:04;1000.70;;;10.65;90.05
64230;BME280;50547;49.498;0.092;2023-04-01T01:38:36;1000.76;;;10.65;90.05
64230;BME280;50547;49.498;0.092;2023-04-01T01:41:07;1000.76;;;10.64;90.04
64230;BME280;50547;49.498;0.092;2023-04-01T01:43:40;1001.03;;;10.61;90.28
64230;BME280;50547;49.498;0.092;2023-04-01T01:46:12;1000.82;;;10.63;90.28
64230;BME280;50547;49.498;0.092;2023-04-01T01:48:44;1000.92;;;10.63;90.05
64230;BME280;50547;49.498;0.092;2023-04-01T01:51:14;1000.88;;;10.65;89.90
64230;BME280;50547;49.498;0.092;2023-04-01T01:53:44;1000.76;;;10.66;89.83
64230;BME280;50547;49.498;0.092;2023-04-01T01:56:13;1000.95;;;10.64;89.89
64230;BME280;50547;49.498;0.092;2023-04-01T01:58:44;1000.90;;;10.67;89.72
64230;BME280;50547;49.498;0.092;2023-04-01T02:01:17;1000.95;;;10.71;89.55
64230;BME280;50547;49.498;0.092;2023-04-01T02:03:48;1001.01;;;10.71;89.55
64230;BME280;50547;49.498;0.092;2023-04-01T02:06:21;1000.99;;;10.75;89.35
64230;BME280;50547;49.498;0.092;2023-04-01T02:08:52;1000.82;;;10.76;89.23
64230;BME280;50547;49.498;0.092;2023-04-01T02:11:26;1001.15;;;10.77;89.38
64230;BME280;50547;49.498;0.092;2023-04-01T02:14:00;1001.03;;;10.78;89.22
64230;BME280;50547;49.498;0.092;2023-04-01T02:16:34;1001.11;;;10.78;89.26
64230;BME280;50547;49.498;0.092;2023-04-01T02:19:06;1001.05;;;10.80;89.12
64230;BME280;50547;49.498;0.092;2023-04-01T02:21:36;1000.97;;;10.82;89.05
64230;BME280;50547;49.498;0.092;2023-04-01T02:24:10;1001.21;;;10.84;89.07
64230;BME280;50547;49.498;0.092;2023-04-01T02:26:41;1001.09;;;10.83;89.21
64230;BME280;50547;49.498;0.092;2023-04-01T02:29:11;1001.03;;;10.83;89.01
64230;BME280;50547;49.498;0.092;2023-04-01T02:31:41;1001.13;;;10.81;89.08
64230;BME280;50547;49.498;0.092;2023-04-01T02:34:12;1001.19;;;10.81;89.09
64230;BME280;50547;49.498;0.092;2023-04-01T02:36:42;1001.21;;;10.81;89.00
64230;BME280;50547;49.498;0.092;2023-04-01T02:39:13;1001.23;;;10.84;88.91
64230;BME280;50547;49.498;0.092;2023-04-01T02:41:44;1000.95;;;10.84;88.92
64230;BME280;50547;49.498;0.092;2023-04-01T02:44:14;1001.23;;;10.84;88.74
64230;BME280;50547;49.498;0.092;2023-04-01T02:46:43;1001.27;;;10.84;88.76
64230;BME280;50547;49.498;0.092;2023-04-01T02:49:13;1001.25;;;10.86;88.56
64230;BME280;50547;49.498;0.092;2023-04-01T02:51:42;1001.27;;;10.86;88.64
64230;BME280;50547;49.498;0.092;2023-04-01T02:54:16;1001.39;;;10.85;88.49
64230;BME280;50547;49.498;0.092;2023-04-01T02:56:45;1001.25;;;10.83;88.42
64230;BME280;50547;49.498;0.092;2023-04-01T02:59:14;1001.37;;;10.88;88.17
64230;BME280;50547;49.498;0.092;2023-04-01T03:01:43;1001.33;;;10.89;88.10
64230;BME280;50547;49.498;0.092;2023-04-01T03:04:12;1001.52;;;10.88;87.84
64230;BME280;50547;49.498;0.092;2023-04-01T03:06:41;1001.25;;;10.91;87.59
64230;BME280;50547;49.498;0.092;2023-04-01T03:09:10;1001.60;;;10.91;87.68
64230;BME280;50547;49.498;0.092;2023-04-01T03:11:39;1001.43;;;10.88;88.04
64230;BME280;50547;49.498;0.092;2023-04-01T03:14:09;1001.41;;;10.89;88.02
64230;BME280;50547;49.498;0.092;2023-04-01T03:16:38;1001.41;;;10.90;88.08
64230;BME280;50547;49.498;0.092;2023-04-01T03:19:07;1001.48;;;10.88;88.11
64230;BME280;50547;49.498;0.092;2023-04-01T03:21:36;1001.44;;;10.90;87.95
64230;BME280;50547;49.498;0.092;2023-04-01T03:24:06;1001.39;;;10.90;88.03
64230;BME280;50547;49.498;0.092;2023-04-01T03:26:35;1001.60;;;10.89;88.21
64230;BME280;50547;49.498;0.092;2023-04-01T03:29:05;1001.50;;;10.88;88.27
64230;BME280;50547;49.498;0.092;2023-04-01T03:31:34;1001.48;;;10.88;88.10
64230;BME280;50547;49.498;0.092;2023-04-01T03:34:03;1001.41;;;10.90;87.96
64230;BME280;50547;49.498;0.092;2023-04-01T03:36:29;1001.48;;;10.88;87.95
64230;BME280;50547;49.498;0.092;2023-04-01T03:38:58;1001.46;;;10.89;87.87
64230;BME280;50547;49.498;0.092;2023-04-01T03:41:27;1001.46;;;10.92;87.94
64230;BME280;50547;49.498;0.092;2023-04-01T03:43:57;1001.66;;;10.87;88.22
64230;BME280;50547;49.498;0.092;2023-04-01T03:46:26;1001.64;;;10.90;88.14
64230;BME280;50547;49.498;0.092;2023-04-01T03:48:55;1001.82;;;10.85;88.48
64230;BME280;50547;49.498;0.092;2023-04-01T03:51:24;1001.68;;;10.88;88.08
64230;BME280;50547;49.498;0.092;2023-04-01T03:53:53;1001.74;;;10.92;87.88
64230;BME280;50547;49.498;0.092;2023-04-01T03:56:22;1001.64;;;10.84;88.37
64230;BME280;50547;49.498;0.092;2023-04-01T03:58:51;1001.78;;;10.88;88.06
64230;BME280;50547;49.498;0.092;2023-04-01T04:01:22;1001.56;;;10.89;87.96
64230;BME280;50547;49.498;0.092;2023-04-01T04:03:51;1001.97;;;10.89;88.00
64230;BME280;50547;49.498;0.092;2023-04-01T04:06:20;1001.62;;;10.90;88.19
64230;BME280;50547;49.498;0.092;2023-04-01T04:08:49;1001.72;;;10.88;88.08
64230;BME280;50547;49.498;0.092;2023-04-01T04:11:16;1001.68;;;10.88;88.20
64230;BME280;50547;49.498;0.092;2023-04-01T04:13:46;1001.74;;;10.87;88.30
64230;BME280;50547;49.498;0.092;2023-04-01T04:16:16;1001.83;;;10.93;88.07
64230;BME280;50547;49.498;0.092;2023-04-01T04:18:45;1001.80;;;10.90;88.21
64230;BME280;50547;49.498;0.092;2023-04-01T04:21:15;1001.82;;;10.90;88.40
64230;BME280;50547;49.498;0.092;2023-04-01T04:23:44;1001.95;;;10.92;88.27
64230;BME280;50547;49.498;0.092;2023-04-01T04:26:12;1001.83;;;10.89;88.39
64230;BME280;50547;49.498;0.092;2023-04-01T04:28:42;1001.97;;;10.94;88.12
64230;BME280;50547;49.498;0.092;2023-04-01T04:31:11;1001.87;;;10.87;88.29
64230;BME280;50547;49.498;0.092;2023-04-01T04:33:40;1002.01;;;10.91;88.07
64230;BME280;50547;49.498;0.092;2023-04-01T04:36:10;1001.93;;;10.88;88.22
64230;BME280;50547;49.498;0.092;2023-04-01T04:38:39;1002.07;;;10.88;88.30
64230;BME280;50547;49.498;0.092;2023-04-01T04:41:09;1002.09;;;10.89;88.01
64230;BME280;50547;49.498;0.092;2023-04-01T04:43:39;1002.07;;;10.88;88.17
64230;BME280;50547;49.498;0.092;2023-04-01T04:46:08;1002.09;;;10.84;88.35
64230;BME280;50547;49.498;0.092;2023-04-01T04:48:38;1002.13;;;10.89;87.86
64230;BME280;50547;49.498;0.092;2023-04-01T04:51:07;1002.03;;;10.92;87.60
64230;BME280;50547;49.498;0.092;2023-04-01T04:53:36;1002.13;;;10.84;87.94
64230;BME280;50547;49.498;0.092;2023-04-01T04:56:02;1001.91;;;10.84;88.05
64230;BME280;50547;49.498;0.092;2023-04-01T04:58:31;1002.07;;;10.86;88.02
64230;BME280;50547;49.498;0.092;2023-04-01T05:01:05;1002.01;;;10.85;87.93
64230;BME280;50547;49.498;0.092;2023-04-01T05:03:35;1002.19;;;10.93;87.49
64230;BME280;50547;49.498;0.092;2023-04-01T05:06:05;1002.36;;;10.93;87.60
64230;BME280;50547;49.498;0.092;2023-04-01T05:08:34;1002.21;;;10.84;88.45
64230;BME280;50547;49.498;0.092;2023-04-01T05:11:06;1002.21;;;10.80;88.92
64230;BME280;50547;49.498;0.092;2023-04-01T05:13:35;1002.30;;;10.79;89.02
64230;BME280;50547;49.498;0.092;2023-04-01T05:16:08;1002.36;;;10.82;88.71
64230;BME280;50547;49.498;0.092;2023-04-01T05:18:38;1002.38;;;10.81;88.53
64230;BME280;50547;49.498;0.092;2023-04-01T05:21:10;1002.40;;;10.74;88.82
64230;BME280;50547;49.498;0.092;2023-04-01T05:23:40;1002.58;;;10.75;88.92
64230;BME280;50547;49.498;0.092;2023-04-01T05:26:12;1002.42;;;10.78;88.83
64230;BME280;50547;49.498;0.092;2023-04-01T05:28:42;1002.36;;;10.76;88.68
64230;BME280;50547;49.498;0.092;2023-04-01T05:31:12;1002.38;;;10.81;88.41
64230;BME280;50547;49.498;0.092;2023-04-01T05:33:38;1002.54;;;10.83;88.35
64230;BME280;50547;49.498;0.092;2023-04-01T05:36:09;1002.60;;;10.82;88.30
64230;BME280;50547;49.498;0.092;2023-04-01T05:38:39;1002.54;;;10.86;88.32
64230;BME280;50547;49.498;0.092;2023-04-01T05:41:09;1002.60;;;10.81;88.33
64230;BME280;50547;49.498;0.092;2023-04-01T05:43:39;1002.62;;;10.79;88.41
64230;BME280;50547;49.498;0.092;2023-04-01T05:46:09;1002.66;;;10.80;88.23
64230;BME280;50547;49.498;0.092;2023-04-01T05:48:39;1002.56;;;10.82;88.08
64230;BME280;50547;49.498;0.092;2023-04-01T05:51:12;1002.76;;;10.78;88.16
64230;BME280;50547;49.498;0.092;2023-04-01T05:53:42;1002.60;;;10.79;87.91
64230;BME280;50547;49.498;0.092;2023-04-01T05:56:12;1002.62;;;10.80;87.64
64230;BME280;50547;49.498;0.092;2023-04-01T05:58:38;1002.70;;;10.81;87.53
64230;BME280;50547;49.498;0.092;2023-04-01T06:01:09;1002.72;;;10.75;87.89
64230;BME280;50547;49.498;0.092;2023-04-01T06:03:39;1002.92;;;10.75;87.69
64230;BME280;50547;49.498;0.092;2023-04-01T06:06:13;1002.74;;;10.76;87.58
64230;BME280;50547;49.498;0.092;2023-04-01T06:08:43;1002.80;;;10.83;87.17
64230;BME280;50547;49.498;0.092;2023-04-01T06:11:21;1002.92;;;10.82;87.23
64230;BME280;50547;49.498;0.092;2023-04-01T06:14:01;1002.64;;;10.81;87.08
64230;BME280;50547;49.498;0.092;2023-04-01T06:16:43;1002.80;;;10.76;87.00
64230;BME280;50547;49.498;0.092;2023-04-01T06:19:23;1002.78;;;10.78;87.20
64230;BME280;50547;49.498;0.092;2023-04-01T06:22:10;1002.81;;;10.81;86.83
64230;BME280;50547;49.498;0.092;2023-04-01T06:24:57;1002.81;;;10.75;87.06
64230;BME280;50547;49.498;0.092;2023-04-01T06:27:45;1002.96;;;10.79;86.82
64230;BME280;50547;49.498;0.092;2023-04-01T06:30:30;1002.94;;;10.80;86.72
64230;BME280;50547;49.498;0.092;2023-04-01T06:33:18;1003.02;;;10.80;86.57
64230;BME280;50547;49.498;0.092;2023-04-01T06:36:00;1002.98;;;10.80;86.66
64230;BME280;50547;49.498;0.092;2023-04-01T06:38:45;1003.23;;;10.75;86.60
64230;BME280;50547;49.498;0.092;2023-04-01T06:42:00;1003.10;;;10.81;86.57
64230;BME280;50547;49.498;0.092;2023-04-01T06:44:39;1003.10;;;10.83;86.34
64230;BME280;50547;49.498;0.092;2023-04-01T06:47:25;1003.06;;;10.80;86.47
64230;BME280;50547;49.498;0.092;2023-04-01T06:50:02;1003.12;;;10.73;86.52
64230;BME280;50547;49.498;0.092;2023-04-01T06:52:44;1003.06;;;10.74;86.34
64230;BME280;50547;49.498;0.092;2023-04-01T06:55:26;1003.19;;;10.85;86.06
64230;BME280;50547;49.498;0.092;2023-04-01T06:57:58;1003.17;;;10.79;86.19
64230;BME280;50547;49.498;0.092;2023-04-01T07:00:31;1003.27;;;10.73;86.09
64230;BME280;50547;49.498;0.092;2023-04-01T07:03:06;1003.29;;;10.80;86.05
64230;BME280;50547;49.498;0.092;2023-04-01T07:05:39;1003.23;;;10.76;86.04
64230;BME280;50547;49.498;0.092;2023-04-01T07:08:12;1003.25;;;10.79;86.01
64230;BME280;50547;49.498;0.092;2023-04-01T07:10:45;1003.31;;;10.74;86.03
64230;BME280;50547;49.498;0.092;2023-04-01T07:13:21;1003.27;;;10.80;85.75
64230;BME280;50547;49.498;0.092;2023-04-01T07:16:11;1003.33;;;10.82;85.63
64230;BME280;50547;49.498;0.092;2023-04-01T07:18:44;1003.47;;;10.87;85.58
64230;BME280;50547;49.498;0.092;2023-04-01T07:21:23;1003.35;;;10.89;85.41
64230;BME280;50547;49.498;0.092;2023-04-01T07:23:57;1003.27;;;10.83;85.63
64230;BME280;50547;49.498;0.092;2023-04-01T07:26:28;1003.29;;;10.88;85.39
64230;BME280;50547;49.498;0.092;2023-04-01T07:28:58;1003.41;;;10.86;85.40
64230;BME280;50547;49.498;0.092;2023-04-01T07:31:39;1003.33;;;10.99;85.11
64230;BME280;50547;49.498;0.092;2023-04-01T07:34:17;1003.41;;;10.97;85.21
64230;BME280;50547;49.498;0.092;2023-04-01T07:36:53;1003.41;;;11.00;84.96
64230;BME280;50547;49.498;0.092;2023-04-01T07:39:33;1003.43;;;11.00;85.38
64230;BME280;50547;49.498;0.092;2023-04-01T07:42:08;1003.53;;;10.95;85.44
64230;BME280;50547;49.498;0.092;2023-04-01T07:44:46;1003.39;;;11.01;85.09
64230;BME280;50547;49.498;0.092;2023-04-01T07:47:27;1003.43;;;11.04;84.86
64230;BME280;50547;49.498;0.092;2023-04-01T07:50:10;1003.49;;;11.03;84.98
64230;BME280;50547;49.498;0.092;2023-04-01T07:52:50;1003.43;;;10.98;85.14
64230;BME280;50547;49.498;0.092;2023-04-01T07:55:23;1003.45;;;11.04;84.85
64230;BME280;50547;49.498;0.092;2023-04-01T07:58:02;1003.47;;;11.15;84.09
64230;BME280;50547;49.498;0.092;2023-04-01T08:00:42;1003.53;;;11.08;84.30
64230;BME280;50547;49.498;0.092;2023-04-01T08:03:23;1003.61;;;11.10;83.96
64230;BME280;50547;49.498;0.092;2023-04-01T08:05:56;1003.53;;;11.21;83.89
64230;BME280;50547;49.498;0.092;2023-04-01T08:08:37;1003.74;;;11.23;83.91
64230;BME280;50547;49.498;0.092;2023-04-01T08:11:16;1003.59;;;11.18;84.02
64230;BME280;50547;49.498;0.092;2023-04-01T08:13:55;1003.72;;;11.29;83.75
64230;BME280;50547;49.498;0.092;2023-04-01T08:16:33;1003.82;;;11.27;84.02
64230;BME280;50547;49.498;0.092;2023-04-01T08:19:17;1003.66;;;11.20;84.32
64230;BME280;50547;49.498;0.092;2023-04-01T08:21:51;1003.68;;;11.29;84.17
64230;BME280;50547;49.498;0.092;2023-04-01T08:24:26;1003.64;;;11.29;84.23
64230;BME280;50547;49.498;0.092;2023-04-01T08:26:59;1003.68;;;11.22;84.23
64230;BME280;50547;49.498;0.092;2023-04-01T08:29:38;1003.78;;;11.24;83.87
64230;BME280;50547;49.498;0.092;2023-04-01T08:32:14;1003.86;;;11.40;83.07
64230;BME280;50547;49.498;0.092;2023-04-01T08:34:50;1003.88;;;11.40;83.27
64230;BME280;50547;49.498;0.092;2023-04-01T08:37:25;1003.84;;;11.41;83.07
64230;BME280;50547;49.498;0.092;2023-04-01T08:39:55;1003.94;;;11.30;83.44
64230;BME280;50547;49.498;0.092;2023-04-01T08:42:43;1003.82;;;11.50;82.56
64230;BME280;50547;49.498;0.092;2023-04-01T08:45:25;1003.94;;;11.48;82.95
64230;BME280;50547;49.498;0.092;2023-04-01T08:48:13;1003.88;;;11.50;82.83
64230;BME280;50547;49.498;0.092;2023-04-01T08:51:18;1003.88;;;11.43;82.96
64230;BME280;50547;49.498;0.092;2023-04-01T08:54:04;1004.02;;;11.44;82.80
64230;BME280;50547;49.498;0.092;2023-04-01T08:57:01;1003.96;;;11.65;82.03
64230;BME280;50547;49.498;0.092;2023-04-01T08:59:46;1003.92;;;11.56;82.44
64230;BME280;50547;49.498;0.092;2023-04-01T09:02:29;1004.00;;;11.69;81.79
64230;BME280;50547;49.498;0.092;2023-04-01T09:05:20;1004.08;;;11.61;82.43
64230;BME280;50547;49.498;0.092;2023-04-01T09:08:01;1004.11;;;11.71;82.13
64230;BME280;50547;49.498;0.092;2023-04-01T09:10:47;1004.09;;;11.57;82.98
64230;BME280;50547;49.498;0.092;2023-04-01T09:13:29;1004.13;;;11.58;82.94
64230;BME280;50547;49.498;0.092;2023-04-01T09:16:24;1004.04;;;11.57;82.92
64230;BME280;50547;49.498;0.092;2023-04-01T09:19:09;1004.15;;;11.68;82.53
64230;BME280;50547;49.498;0.092;2023-04-01T09:21:57;1004.09;;;11.65;82.90
64230;BME280;50547;49.498;0.092;2023-04-01T09:24:46;1003.92;;;11.52;83.85
64230;BME280;50547;49.498;0.092;2023-04-01T09:27:26;1004.13;;;11.55;83.45
64230;BME280;50547;49.498;0.092;2023-04-01T09:31:13;1004.08;;;11.69;83.08
64230;BME280;50547;49.498;0.092;2023-04-01T09:34:10;1004.04;;;11.55;83.55
64230;BME280;50547;49.498;0.092;2023-04-01T09:36:47;1004.11;;;11.59;83.62
64230;BME280;50547;49.498;0.092;2023-04-01T09:39:35;1004.17;;;11.60;84.06
64230;BME280;50547;49.498;0.092;2023-04-01T09:42:31;1004.17;;;11.62;83.95
64230;BME280;50547;49.498;0.092;2023-04-01T09:45:08;1004.11;;;11.72;83.48
64230;BME280;50547;49.498;0.092;2023-04-01T09:47:55;1004.11;;;11.87;82.76
64230;BME280;50547;49.498;0.092;2023-04-01T09:50:33;1004.23;;;11.92;82.82
64230;BME280;50547;49.498;0.092;2023-04-01T09:53:13;1004.17;;;11.83;83.32
64230;BME280;50547;49.498;0.092;2023-04-01T09:56:13;1004.21;;;11.74;83.55
64230;BME280;50547;49.498;0.092;2023-04-01T09:59:37;1004.33;;;11.86;83.08
64230;BME280;50547;49.498;0.092;2023-04-01T10:02:50;1004.35;;;11.70;84.03
64230;BME280;50547;49.498;0.092;2023-04-01T10:05:40;1004.27;;;11.80;83.27
64230;BME280;50547;49.498;0.092;2023-04-01T10:08:34;1004.43;;;11.75;83.78
64230;BME280;50547;49.498;0.092;2023-04-01T10:11:22;1004.31;;;11.77;83.61
64230;BME280;50547;49.498;0.092;2023-04-01T10:14:15;1004.27;;;11.65;84.12
64230;BME280;50547;49.498;0.092;2023-04-01T10:17:15;1004.33;;;11.81;83.35
64230;BME280;50547;49.498;0.092;2023-04-01T10:20:00;1004.37;;;11.85;83.25
64230;BME280;50547;49.498;0.092;2023-04-01T10:22:49;1004.37;;;11.80;83.66
64230;BME280;50547;49.498;0.092;2023-04-01T10:25:53;1004.31;;;11.86;83.19
64230;BME280;50547;49.498;0.092;2023-04-01T10:29:00;1004.35;;;11.83;83.47
64230;BME280;50547;49.498;0.092;2023-04-01T10:32:55;1004.41;;;11.77;83.66
64230;BME280;50547;49.498;0.092;2023-04-01T10:35:53;1004.35;;;11.73;83.87
64230;BME280;50547;49.498;0.092;2023-04-01T10:44:05;1004.56;;;11.81;83.36
64230;BME280;50547;49.498;0.092;2023-04-01T10:47:02;1004.45;;;11.73;83.56
64230;BME280;50547;49.498;0.092;2023-04-01T10:49:44;1004.45;;;11.78;83.17
64230;BME280;50547;49.498;0.092;2023-04-01T10:53:32;1004.50;;;11.84;82.98
64230;BME280;50547;49.498;0.092;2023-04-01T10:56:51;1004.43;;;11.98;82.62
64230;BME280;50547;49.498;0.092;2023-04-01T10:59:43;1004.50;;;12.01;82.50
64230;BME280;50547;49.498;0.092;2023-04-01T11:11:57;1004.48;;;12.22;82.50
64230;BME280;50547;49.498;0.092;2023-04-01T11:14:53;1004.50;;;12.03;83.37
64230;BME280;50547;49.498;0.092;2023-04-01T11:18:03;1004.62;;;12.18;82.61
64230;BME280;50547;49.498;0.092;2023-04-01T11:21:06;1004.62;;;12.07;82.98
64230;BME280;50547;49.498;0.092;2023-04-01T11:23:58;1004.66;;;12.01;83.23
64230;BME280;50547;49.498;0.092;2023-04-01T11:26:41;1004.68;;;11.92;83.49
64230;BME280;50547;49.498;0.092;2023-04-01T11:29:32;1004.72;;;12.02;82.80
64230;BME280;50547;49.498;0.092;2023-04-01T11:32:17;1004.68;;;12.03;82.44
64230;BME280;50547;49.498;0.092;2023-04-01T11:35:00;1004.78;;;11.94;82.85
64230;BME280;50547;49.498;0.092;2023-04-01T11:37:40;1004.80;;;11.98;82.37
64230;BME280;50547;49.498;0.092;2023-04-01T11:40:23;1004.82;;;11.96;82.21
64230;BME280;50547;49.498;0.092;2023-04-01T11:43:01;1004.80;;;11.82;82.40
64230;BME280;50547;49.498;0.092;2023-04-01T11:45:37;1004.62;;;11.81;82.53
64230;BME280;50547;49.498;0.092;2023-04-01T11:48:20;1004.88;;;11.89;81.92
64230;BME280;50547;49.498;0.092;2023-04-01T11:51:07;1004.88;;;11.98;81.61
64230;BME280;50547;49.498;0.092;2023-04-01T11:53:46;1004.82;;;11.93;81.79
64230;BME280;50547;49.498;0.092;2023-04-01T11:56:28;1004.90;;;11.93;81.76
64230;BME280;50547;49.498;0.092;2023-04-01T11:59:19;1004.94;;;11.84;82.78
64230;BME280;50547;49.498;0.092;2023-04-01T12:01:59;1005.09;;;11.76;82.78
64230;BME280;50547;49.498;0.092;2023-04-01T12:04:41;1004.99;;;11.74;82.94
64230;BME280;50547;49.498;0.092;2023-04-01T12:07:21;1004.99;;;11.69;83.17
64230;BME280;50547;49.498;0.092;2023-04-01T12:09:58;1005.17;;;11.90;81.83
64230;BME280;50547;49.498;0.092;2023-04-01T12:12:36;1005.07;;;11.77;82.55
64230;BME280;50547;49.498;0.092;2023-04-01T12:15:18;1004.94;;;11.71;82.17
64230;BME280;50547;49.498;0.092;2023-04-01T12:17:53;1004.94;;;11.75;82.56
64230;BME280;50547;49.498;0.092;2023-04-01T12:20:34;1004.96;;;11.76;82.48
64230;BME280;50547;49.498;0.092;2023-04-01T12:23:18;1004.96;;;11.65;83.90
64230;BME280;50547;49.498;0.092;2023-04-01T12:26:01;1005.03;;;11.53;85.26
64230;BME280;50547;49.498;0.092;2023-04-01T12:28:42;1005.03;;;11.50;85.75
64230;BME280;50547;49.498;0.092;2023-04-01T12:31:24;1005.05;;;11.43;86.16
64230;BME280;50547;49.498;0.092;2023-04-01T12:34:23;1005.21;;;11.32;86.91
64230;BME280;50547;49.498;0.092;2023-04-01T12:37:04;1005.31;;;11.37;86.57
64230;BME280;50547;49.498;0.092;2023-04-01T12:39:48;1005.17;;;11.45;86.35
64230;BME280;50547;49.498;0.092;2023-04-01T12:42:35;1005.25;;;11.47;86.21
64230;BME280;50547;49.498;0.092;2023-04-01T12:45:23;1005.13;;;11.48;86.03
64230;BME280;50547;49.498;0.092;2023-04-01T12:48:15;1005.23;;;11.54;85.89
64230;BME280;50547;49.498;0.092;2023-04-01T12:51:05;1005.25;;;11.49;86.08
64230;BME280;50547;49.498;0.092;2023-04-01T12:53:49;1005.27;;;11.74;84.95
64230;BME280;50547;49.498;0.092;2023-04-01T12:56:32;1005.27;;;11.87;84.49
64230;BME280;50547;49.498;0.092;2023-04-01T12:59:22;1005.13;;;11.92;84.33
64230;BME280;50547;49.498;0.092;2023-04-01T13:02:01;1005.41;;;12.19;83.40
64230;BME280;50547;49.498;0.092;2023-04-01T13:04:47;1005.31;;;11.95;84.41
64230;BME280;50547;49.498;0.092;2023-04-01T13:07:46;1005.35;;;12.00;84.27
64230;BME280;50547;49.498;0.092;2023-04-01T13:10:30;1005.29;;;12.08;84.29
64230;BME280;50547;49.498;0.092;2023-04-01T13:13:16;1005.41;;;12.26;83.09
64230;BME280;50547;49.498;0.092;2023-04-01T13:15:46;1005.41;;;12.37;82.48
64230;BME280;50547;49.498;0.092;2023-04-01T13:18:25;1005.49;;;12.28;83.29
64230;BME280;50547;49.498;0.092;2023-04-01T13:21:03;1005.39;;;12.27;83.60
64230;BME280;50547;49.498;0.092;2023-04-01T13:23:45;1005.39;;;12.27;83.52
64230;BME280;50547;49.498;0.092;2023-04-01T13:26:26;1005.53;;;12.36;83.32
64230;BME280;50547;49.498;0.092;2023-04-01T13:29:04;1005.55;;;12.08;85.69
64230;BME280;50547;49.498;0.092;2023-04-01T13:31:53;1005.67;;;12.11;85.59
64230;BME280;50547;49.498;0.092;2023-04-01T13:34:33;1005.59;;;12.17;84.80
64230;BME280;50547;49.498;0.092;2023-04-01T13:37:19;1005.59;;;12.01;85.13
64230;BME280;50547;49.498;0.092;2023-04-01T13:40:05;1005.75;;;12.27;83.46
64230;BME280;50547;49.498;0.092;2023-04-01T13:42:47;1005.63;;;12.03;84.25
64230;BME280;50547;49.498;0.092;2023-04-01T13:45:21;1005.55;;;12.07;84.44
64230;BME280;50547;49.498;0.092;2023-04-01T13:48:18;1005.67;;;12.08;84.68
64230;BME280;50547;49.498;0.092;2023-04-01T13:51:05;1005.71;;;12.05;84.31
64230;BME280;50547;49.498;0.092;2023-04-01T13:53:51;1005.77;;;12.06;84.37
64230;BME280;50547;49.498;0.092;2023-04-01T13:56:34;1005.73;;;12.28;83.17
64230;BME280;50547;49.498;0.092;2023-04-01T13:59:25;1005.82;;;12.34;82.99
64230;BME280;50547;49.498;0.092;2023-04-01T14:02:14;1005.77;;;12.41;82.90
64230;BME280;50547;49.498;0.092;2023-04-01T14:05:03;1005.80;;;12.35;83.14
64230;BME280;50547;49.498;0.092;2023-04-01T14:07:50;1005.80;;;12.27;83.62
64230;BME280;50547;49.498;0.092;2023-04-01T14:10:30;1005.82;;;12.19;84.20
64230;BME280;50547;49.498;0.092;2023-04-01T14:13:08;1005.88;;;12.02;85.10
64230;BME280;50547;49.498;0.092;2023-04-01T14:15:49;1005.88;;;12.05;84.81
64230;BME280;50547;49.498;0.092;2023-04-01T14:18:42;1005.90;;;11.95;85.07
64230;BME280;50547;49.498;0.092;2023-04-01T14:21:21;1005.98;;;11.94;84.62
64230;BME280;50547;49.498;0.092;2023-04-01T14:24:22;1006.04;;;11.80;85.24
64230;BME280;50547;49.498;0.092;2023-04-01T14:27:08;1006.00;;;11.87;84.88
64230;BME280;50547;49.498;0.092;2023-04-01T14:29:46;1005.96;;;11.82;84.82